createdAt,value
2022-09-29T00:00:40.656Z,17.66
2022-09-29T00:05:51.236Z,17.34
2022-09-29T00:10:53.473Z,17.52
2022-09-29T00:16:00.344Z,17.37
2022-09-29T00:28:26.622Z,17.34
2022-09-29T00:33:33.093Z,17.04
2022-09-29T00:38:35.388Z,17.19
2022-09-29T00:43:55.451Z,17.05
2022-09-29T00:49:00.159Z,17.03
2022-09-29T00:54:02.936Z,16.98
2022-09-29T00:59:08.333Z,16.89
2022-09-29T01:04:14.997Z,16.83
2022-09-29T01:09:26.504Z,16.69
2022-09-29T01:14:29.911Z,16.58
2022-09-29T01:20:13.357Z,16.51
2022-09-29T01:25:52.569Z,16.52
2022-09-29T01:31:00.397Z,16.39
2022-09-29T01:36:20.617Z,16.36
2022-09-29T01:41:35.696Z,16.01
2022-09-29T01:47:04.004Z,16.22
2022-09-29T01:52:12.321Z,16.14
2022-09-29T01:57:53.660Z,16.16
2022-09-29T02:03:00.487Z,16.08
2022-09-29T02:08:09.580Z,15.79
2022-09-29T02:13:12.259Z,15.92
2022-09-29T02:18:21.708Z,15.91
2022-09-29T02:23:23.631Z,15.72
2022-09-29T02:28:25.632Z,15.90
2022-09-29T02:33:27.584Z,15.91
2022-09-29T02:38:54.942Z,15.77
2022-09-29T02:44:16.029Z,15.51
2022-09-29T02:49:27.350Z,15.61
2022-09-29T02:54:35.502Z,15.67
2022-09-29T02:59:46.318Z,15.44
2022-09-29T03:04:48.060Z,15.71
2022-09-29T03:09:50.130Z,15.63
2022-09-29T03:14:52.391Z,15.60
2022-09-29T03:19:54.312Z,15.50
2022-09-29T03:24:56.442Z,15.54
2022-09-29T03:29:58.325Z,15.52
2022-09-29T03:35:00.228Z,15.26
2022-09-29T03:40:03.092Z,15.25
2022-09-29T03:45:05.516Z,15.40
2022-09-29T03:50:08.002Z,15.31
2022-09-29T03:55:10.199Z,15.27
2022-09-29T04:00:12.610Z,15.17
2022-09-29T04:05:15.176Z,15.16
2022-09-29T04:10:18.283Z,15.13
2022-09-29T04:15:20.349Z,15.11
2022-09-29T04:20:22.357Z,15.07
2022-09-29T04:25:24.260Z,14.74
2022-09-29T04:30:26.434Z,14.90
2022-09-29T04:36:55.119Z,14.81
2022-09-29T04:41:57.339Z,14.74
2022-09-29T04:46:59.317Z,14.64
2022-09-29T04:52:01.571Z,14.58
2022-09-29T04:57:03.753Z,14.47
2022-09-29T05:02:05.737Z,14.43
2022-09-29T05:07:07.915Z,14.43
2022-09-29T05:12:10.118Z,13.97
2022-09-29T05:17:12.055Z,14.21
2022-09-29T05:22:14.057Z,14.18
2022-09-29T05:27:15.956Z,14.15
2022-09-29T05:32:18.002Z,14.04
2022-09-29T05:37:20.023Z,14.03
2022-09-29T05:49:39.489Z,13.93
2022-09-29T05:54:41.368Z,13.94
2022-09-29T05:59:43.207Z,14.00
2022-09-29T06:04:45.188Z,13.98
2022-09-29T06:09:47.903Z,14.02
2022-09-29T06:14:50.469Z,14.03
2022-09-29T06:19:53.556Z,14.04
2022-09-29T06:24:55.589Z,14.07
2022-09-29T06:29:58.029Z,14.13
2022-09-29T06:35:25.637Z,14.17
2022-09-29T06:40:33.046Z,14.18
2022-09-29T06:45:35.029Z,14.20
2022-09-29T06:50:36.948Z,14.20
2022-09-29T06:55:39.189Z,14.07
2022-09-29T07:00:41.495Z,14.27
2022-09-29T07:06:15.116Z,14.32
2022-09-29T07:11:12.034Z,14.38
2022-09-29T07:16:14.922Z,14.22
2022-09-29T07:21:18.013Z,14.52
2022-09-29T07:26:21.166Z,14.57
2022-09-29T07:31:23.611Z,14.68
2022-09-29T07:36:26.109Z,14.77
2022-09-29T07:41:28.251Z,14.67
2022-09-29T07:46:30.299Z,15.01
2022-09-29T07:51:32.681Z,14.90
2022-09-29T07:56:37.007Z,15.02
2022-09-29T08:01:41.518Z,15.38
2022-09-29T08:06:43.613Z,15.37
2022-09-29T08:11:45.864Z,15.28
2022-09-29T08:16:48.411Z,15.38
2022-09-29T08:21:50.364Z,15.58
2022-09-29T08:26:52.448Z,15.61
2022-09-29T08:31:55.792Z,15.58
2022-09-29T08:36:58.433Z,15.61
2022-09-29T08:42:15.944Z,15.63
2022-09-29T08:47:26.305Z,15.75
2022-09-29T08:52:51.357Z,15.72
2022-09-29T08:57:59.196Z,15.72
2022-09-29T09:03:21.787Z,15.68
2022-09-29T09:08:48.910Z,15.90
2022-09-29T09:14:23.368Z,15.98
2022-09-29T09:19:43.518Z,15.98
2022-09-29T09:24:49.739Z,15.95
2022-09-29T09:30:01.668Z,15.96
2022-09-29T09:35:25.039Z,15.94
2022-09-29T09:40:33.203Z,16.01
2022-09-29T09:46:00.601Z,15.96
2022-09-29T09:51:32.756Z,15.91
2022-09-29T09:56:48.328Z,15.94
2022-09-29T10:01:50.226Z,15.99
2022-09-29T10:06:52.898Z,16.02
2022-09-29T10:11:54.897Z,15.78
2022-09-29T10:17:02.472Z,16.06
2022-09-29T10:22:15.283Z,16.05
2022-09-29T10:27:19.481Z,16.10
2022-09-29T10:32:36.638Z,16.29
2022-09-29T10:37:42.342Z,16.34
2022-09-29T10:42:47.116Z,16.27
2022-09-29T10:47:58.073Z,16.51
2022-09-29T10:53:03.142Z,16.60
2022-09-29T11:04:03.744Z,16.68
2022-09-29T11:09:05.611Z,16.70
2022-09-29T11:14:26.003Z,16.71
2022-09-29T11:19:30.239Z,16.81
2022-09-29T11:24:38.105Z,16.82
2022-09-29T11:30:11.257Z,16.73
2022-09-29T11:35:16.634Z,16.45
2022-09-29T11:40:30.119Z,16.74
2022-09-29T11:45:39.484Z,16.60
2022-09-29T11:50:44.324Z,16.70
2022-09-29T11:56:18.338Z,16.67
2022-09-29T12:01:22.880Z,16.71
2022-09-29T12:06:45.710Z,16.95
2022-09-29T12:12:23.174Z,17.11
2022-09-29T12:17:31.659Z,17.24
2022-09-29T12:22:36.983Z,17.32
2022-09-29T12:27:41.361Z,17.31
2022-09-29T12:32:53.971Z,17.14
2022-09-29T12:38:07.891Z,17.31
2022-09-29T12:43:19.909Z,17.07
2022-09-29T12:48:46.895Z,17.05
2022-09-29T12:54:09.974Z,16.70
2022-09-29T12:59:31.802Z,16.27
2022-09-29T13:05:18.164Z,15.57
2022-09-29T13:10:42.105Z,15.03
2022-09-29T13:15:55.614Z,14.93
2022-09-29T13:21:23.194Z,14.72
2022-09-29T13:26:26.598Z,14.37
2022-09-29T13:31:33.704Z,14.37
2022-09-29T13:36:40.797Z,14.73
2022-09-29T13:41:43.503Z,14.69
2022-09-29T13:46:45.847Z,14.63
2022-09-29T13:51:58.323Z,14.78
2022-09-29T13:57:25.417Z,14.57
2022-09-29T14:02:37.864Z,14.71
2022-09-29T14:07:49.876Z,15.00
2022-09-29T14:13:07.519Z,15.15
2022-09-29T14:18:37.566Z,15.16
2022-09-29T14:23:49.696Z,15.26
2022-09-29T14:28:53.569Z,15.13
2022-09-29T14:33:56.175Z,15.26
2022-09-29T14:39:24.582Z,15.15
2022-09-29T14:44:52.320Z,15.35
2022-09-29T14:50:22.064Z,15.40
2022-09-29T14:55:23.840Z,15.23
2022-09-29T15:01:03.328Z,15.75
2022-09-29T15:06:20.621Z,15.71
2022-09-29T15:11:27.380Z,15.67
2022-09-29T15:16:57.572Z,15.78
2022-09-29T15:22:02.312Z,15.80
2022-09-29T15:27:06.180Z,15.79
2022-09-29T15:32:26.727Z,15.56
2022-09-29T15:37:51.151Z,15.59
2022-09-29T15:42:57.447Z,15.39
2022-09-29T15:48:08.281Z,15.55
2022-09-29T15:53:11.359Z,15.40
2022-09-29T15:58:26.533Z,15.50
2022-09-29T16:03:41.687Z,15.20
2022-09-29T16:08:47.158Z,15.38
2022-09-29T16:13:55.198Z,15.34
2022-09-29T16:19:02.529Z,15.26
2022-09-29T16:24:19.423Z,15.06
2022-09-29T16:29:29.719Z,15.19
2022-09-29T16:34:33.717Z,15.13
2022-09-29T16:39:53.782Z,15.13
2022-09-29T16:44:56.562Z,15.24
2022-09-29T16:50:05.432Z,15.23
2022-09-29T16:55:22.346Z,15.27
2022-09-29T17:00:24.756Z,15.23
2022-09-29T17:05:27.815Z,15.13
2022-09-29T17:10:30.673Z,15.04
2022-09-29T17:15:32.598Z,15.03
2022-09-29T17:20:34.989Z,15.00
2022-09-29T17:25:39.147Z,15.03
2022-09-29T17:30:46.699Z,14.95
2022-09-29T17:35:55.078Z,14.70
2022-09-29T17:41:03.983Z,14.96
2022-09-29T17:46:07.104Z,14.93
2022-09-29T17:51:14.088Z,14.88
2022-09-29T17:56:27.192Z,14.86
2022-09-29T18:01:34.623Z,14.76
2022-09-29T18:06:38.248Z,14.75
2022-09-29T18:11:40.300Z,14.66
2022-09-29T18:16:42.309Z,14.61
2022-09-29T18:21:44.656Z,14.57
2022-09-29T18:26:47.256Z,14.39
2022-09-29T18:31:49.450Z,14.25
2022-09-29T18:36:51.503Z,14.31
2022-09-29T18:41:54.174Z,13.98
2022-09-29T18:46:56.785Z,14.23
2022-09-29T18:51:59.857Z,14.22
2022-09-29T18:57:02.887Z,14.22
2022-09-29T19:02:05.247Z,14.15
2022-09-29T19:07:08.397Z,14.08
2022-09-29T19:12:11.374Z,13.73
2022-09-29T19:17:13.809Z,14.04
2022-09-29T19:22:16.301Z,13.98
2022-09-29T19:27:20.122Z,13.82
2022-09-29T19:32:23.518Z,13.66
2022-09-29T19:37:26.019Z,13.62
2022-09-29T19:42:28.977Z,13.40
2022-09-29T19:47:31.265Z,13.40
2022-09-29T19:52:33.982Z,13.34
2022-09-29T19:57:35.829Z,13.20
2022-09-29T20:02:38.407Z,13.31
2022-09-29T20:07:47.002Z,12.96
2022-09-29T20:12:49.314Z,13.11
2022-09-29T20:17:52.292Z,13.34
2022-09-29T20:22:54.566Z,13.31
2022-09-29T20:27:59.041Z,13.34
2022-09-29T20:33:01.278Z,13.26
2022-09-29T20:38:03.779Z,13.11
2022-09-29T20:43:06.939Z,13.08
2022-09-29T20:48:10.898Z,12.84
2022-09-29T20:53:13.061Z,12.96
2022-09-29T20:58:15.832Z,12.88
2022-09-29T21:03:17.837Z,12.86
2022-09-29T21:08:20.285Z,12.55
2022-09-29T21:13:25.010Z,12.73
2022-09-29T21:18:27.702Z,12.62
2022-09-29T21:23:34.624Z,12.40
2022-09-29T21:28:39.657Z,12.23
2022-09-29T21:33:42.787Z,12.47
2022-09-29T21:38:45.491Z,12.53
2022-09-29T21:43:50.098Z,12.34
2022-09-29T21:48:53.626Z,12.60
2022-09-29T21:53:57.766Z,12.60
2022-09-29T21:58:59.682Z,12.66
2022-09-29T22:04:02.643Z,12.74
2022-09-29T22:09:07.431Z,12.70
2022-09-29T22:14:12.144Z,12.61
2022-09-29T22:19:29.757Z,12.64
2022-09-29T22:24:33.402Z,12.60
2022-09-29T22:29:35.611Z,12.64
2022-09-29T22:34:37.505Z,12.71
2022-09-29T22:39:39.423Z,12.63
2022-09-29T22:44:41.664Z,12.87
2022-09-29T22:49:43.995Z,12.73
2022-09-29T22:54:46.250Z,12.97
2022-09-29T22:59:48.222Z,12.99
2022-09-29T23:04:50.339Z,12.93
2022-09-29T23:09:52.662Z,12.89
2022-09-29T23:14:56.486Z,12.83
2022-09-29T23:19:59.056Z,12.83
2022-09-29T23:25:01.067Z,12.64
2022-09-29T23:30:02.970Z,12.46
2022-09-29T23:35:05.304Z,12.68
2022-09-29T23:40:07.503Z,12.46
2022-09-29T23:45:09.656Z,12.41
2022-09-29T23:50:12.511Z,12.29
2022-09-29T23:55:14.841Z,12.53
